Battleboro, North Carolina
Current Conditions -  °F | °C
As of 8:15 AM on Wednesday 22 Oct 2014 (Local Time) from KETC Reporting Station
Clear Clear  
Wind Chill: 51°   Ceiling: Unl
Heat Index: 51°   Visibility: 10mi
Dew Point: 47°   Wind: 6mph
Humidity: 88%   Direction: 290°WNW
Pressure: 29.94"   Gusts: NA
Location:  36.05°N, 77.75°W
Report Text: KETC 221215Z AUTO 29005KT 10SM CLR 10/09 A2994 RMK AO2 T01040085
Loading
Personal Weather Stations






























Interactive Weather Map
Tropical Storm Tracking
New forecast layout! Learn more

10-Day Weather Forecast

Advertisements
Track Severe Weather on mobile